createdAt,value
2018-07-13T00:02:42.076Z,67.07
2018-07-13T00:06:06.515Z,66.86
2018-07-13T00:09:30.979Z,67.22
2018-07-13T00:12:55.399Z,67.25
2018-07-13T00:16:19.566Z,68.08
2018-07-13T00:19:44.044Z,68.22
2018-07-13T00:23:08.502Z,68.11
2018-07-13T00:26:32.964Z,67.99
2018-07-13T00:29:57.442Z,67.58
2018-07-13T00:33:21.863Z,68.08
2018-07-13T00:36:46.289Z,68.60
2018-07-13T00:40:10.747Z,69.01
2018-07-13T00:43:35.186Z,68.61
2018-07-13T00:46:59.636Z,69.45
2018-07-13T00:50:24.098Z,69.10
2018-07-13T00:53:48.617Z,69.22
2018-07-13T00:57:13.017Z,69.55
2018-07-13T01:00:37.440Z,69.44
2018-07-13T01:04:01.871Z,70.04
2018-07-13T01:07:26.305Z,70.07
2018-07-13T01:10:50.748Z,70.40
2018-07-13T01:14:15.164Z,71.39
2018-07-13T01:17:39.582Z,70.88
2018-07-13T01:21:04.075Z,70.63
2018-07-13T01:24:28.516Z,71.08
2018-07-13T01:27:52.959Z,71.63
2018-07-13T01:31:17.391Z,70.96
2018-07-13T01:34:41.827Z,71.37
2018-07-13T01:38:06.330Z,71.50
2018-07-13T01:41:30.934Z,71.76
2018-07-13T01:44:55.344Z,73.03
2018-07-13T01:48:19.758Z,72.00
2018-07-13T01:51:44.186Z,72.02
2018-07-13T01:55:08.616Z,72.54
2018-07-13T01:58:33.050Z,72.23
2018-07-13T02:01:57.468Z,72.31
2018-07-13T02:13:27.901Z,73.11
2018-07-13T02:20:52.617Z,74.47
2018-07-13T02:24:33.225Z,73.58
2018-07-13T02:28:20.249Z,73.30
2018-07-13T02:32:11.243Z,73.48
2018-07-13T02:36:00.536Z,73.65
2018-07-13T02:39:45.917Z,73.80
2018-07-13T02:48:38.246Z,73.58
2018-07-13T02:52:22.860Z,75.13
2018-07-13T02:56:17.782Z,75.95
2018-07-13T03:00:01.188Z,75.48
2018-07-13T03:03:41.081Z,75.04
2018-07-13T03:07:16.327Z,75.01
2018-07-13T03:10:58.250Z,75.23
2018-07-13T03:14:48.088Z,75.82
2018-07-13T03:18:27.737Z,75.40
2018-07-13T03:22:16.246Z,75.66
2018-07-13T03:25:57.293Z,75.53
2018-07-13T03:29:50.786Z,75.82
2018-07-13T03:33:21.941Z,75.71
2018-07-13T03:37:04.048Z,74.96
2018-07-13T03:40:49.780Z,76.37
2018-07-13T03:44:43.161Z,76.37
2018-07-13T03:48:58.602Z,76.27
2018-07-13T03:54:11.067Z,75.67
2018-07-13T03:57:57.217Z,75.43
2018-07-13T04:09:35.580Z,76.78
2018-07-13T04:13:19.426Z,76.07
2018-07-13T04:17:05.770Z,76.35
2018-07-13T04:20:51.973Z,75.37
2018-07-13T04:24:34.490Z,75.60
2018-07-13T04:32:14.990Z,75.98
2018-07-13T04:35:56.593Z,75.94
2018-07-13T04:39:41.462Z,75.45
2018-07-13T04:44:27.313Z,75.29
2018-07-13T04:48:06.367Z,75.16
2018-07-13T04:51:31.016Z,75.56
2018-07-13T04:54:55.525Z,74.83
2018-07-13T04:58:19.802Z,75.30
2018-07-13T05:01:44.266Z,74.81
2018-07-13T05:05:09.200Z,74.71
2018-07-13T05:08:33.652Z,74.76
2018-07-13T05:11:58.064Z,74.69
2018-07-13T05:15:22.558Z,74.63
2018-07-13T05:18:46.985Z,74.47
2018-07-13T05:22:11.517Z,73.95
2018-07-13T05:25:36.556Z,74.25
2018-07-13T05:29:01.153Z,73.43
2018-07-13T05:32:25.735Z,73.99
2018-07-13T05:35:50.355Z,73.47
2018-07-13T05:39:14.866Z,73.71
2018-07-13T05:42:39.362Z,73.29
2018-07-13T05:46:03.928Z,72.93
2018-07-13T05:49:29.247Z,72.15
2018-07-13T05:53:18.859Z,72.23
2018-07-13T05:57:02.509Z,71.99
2018-07-13T06:00:27.111Z,71.71
2018-07-13T06:03:51.608Z,72.16
2018-07-13T06:07:16.085Z,71.61
2018-07-13T06:10:40.647Z,70.98
2018-07-13T06:14:05.354Z,70.06
2018-07-13T06:17:29.852Z,70.74
2018-07-13T06:20:54.358Z,70.50
2018-07-13T06:24:18.821Z,70.43
2018-07-13T06:27:43.273Z,69.76
2018-07-13T06:31:07.849Z,69.82
2018-07-13T06:34:32.336Z,68.98
2018-07-13T06:37:56.891Z,69.55
2018-07-13T06:41:21.437Z,68.56
2018-07-13T06:44:46.009Z,68.24
2018-07-13T06:48:11.093Z,67.84
2018-07-13T06:51:35.595Z,67.30
2018-07-13T06:55:00.078Z,67.30
2018-07-13T06:58:41.405Z,66.70
2018-07-13T07:02:05.879Z,66.25
2018-07-13T07:06:36.180Z,66.12
2018-07-13T07:10:00.695Z,65.00
2018-07-13T07:13:33.437Z,65.52
2018-07-13T07:16:57.895Z,64.30
2018-07-13T07:20:22.352Z,63.73
2018-07-13T07:23:46.826Z,64.50
2018-07-13T07:27:11.305Z,64.24
2018-07-13T07:30:35.879Z,63.35
2018-07-13T07:34:00.337Z,63.25
2018-07-13T07:37:24.986Z,62.43
2018-07-13T07:40:49.872Z,61.75
2018-07-13T07:44:14.363Z,62.36
2018-07-13T07:47:38.859Z,61.52
2018-07-13T07:51:03.322Z,61.37
2018-07-13T07:54:27.763Z,59.29
2018-07-13T07:57:52.232Z,59.60
2018-07-13T08:01:16.686Z,58.55
2018-07-13T08:04:41.215Z,57.56
2018-07-13T08:08:05.804Z,57.34
2018-07-13T08:11:30.200Z,56.57
2018-07-13T08:14:54.657Z,54.28
2018-07-13T08:18:19.106Z,55.62
2018-07-13T08:21:45.351Z,54.76
2018-07-13T08:25:14.574Z,53.75
2018-07-13T08:28:39.099Z,51.84
2018-07-13T08:32:03.630Z,48.38
2018-07-13T08:35:28.062Z,48.85
2018-07-13T08:38:52.502Z,50.15
2018-07-13T08:42:16.938Z,51.08
2018-07-13T08:45:41.095Z,53.00
2018-07-13T08:49:05.659Z,51.17
2018-07-13T08:52:30.655Z,51.45
2018-07-13T08:55:55.111Z,51.01
2018-07-13T08:59:19.612Z,49.76
2018-07-13T09:02:44.095Z,50.68
2018-07-13T09:06:08.640Z,48.12
2018-07-13T09:09:33.080Z,48.45
2018-07-13T09:12:57.626Z,49.38
2018-07-13T09:16:22.090Z,46.78
2018-07-13T09:19:46.656Z,45.44
2018-07-13T09:23:11.094Z,47.95
2018-07-13T09:26:35.666Z,45.43
2018-07-13T09:30:00.155Z,45.16
2018-07-13T09:33:24.630Z,43.32
2018-07-13T09:36:49.128Z,44.62
2018-07-13T09:40:13.598Z,43.73
2018-07-13T09:43:38.047Z,42.95
2018-07-13T09:47:02.761Z,44.20
2018-07-13T09:50:27.073Z,44.75
2018-07-13T09:53:51.621Z,44.28
2018-07-13T09:57:16.039Z,41.12
2018-07-13T10:01:48.323Z,42.79
2018-07-13T10:05:12.846Z,40.65
2018-07-13T10:08:37.559Z,41.79
2018-07-13T10:12:02.016Z,40.22
2018-07-13T10:15:26.543Z,40.41
2018-07-13T10:18:51.053Z,37.45
2018-07-13T10:22:19.383Z,36.99
2018-07-13T10:25:52.496Z,37.13
2018-07-13T10:29:22.981Z,35.76
2018-07-13T10:32:47.434Z,34.02
2018-07-13T10:36:17.068Z,32.90
2018-07-13T10:39:41.516Z,32.60
2018-07-13T10:43:07.945Z,30.49
2018-07-13T10:46:32.470Z,26.33
2018-07-13T10:49:56.908Z,25.30
2018-07-13T10:53:21.368Z,22.89
2018-07-13T10:56:45.876Z,21.84
2018-07-13T11:00:10.353Z,20.50
2018-07-13T11:03:35.060Z,19.06
2018-07-13T11:06:59.472Z,16.57
2018-07-13T11:10:23.957Z,17.01
2018-07-13T11:13:49.307Z,15.78
2018-07-13T11:17:13.785Z,15.10
2018-07-13T11:20:38.260Z,16.31
2018-07-13T11:24:02.831Z,15.27
2018-07-13T11:27:27.382Z,15.00
2018-07-13T11:30:51.827Z,14.88
2018-07-13T11:34:16.408Z,13.91
2018-07-13T11:37:40.857Z,14.20
2018-07-13T11:41:05.359Z,14.33
2018-07-13T11:44:29.810Z,14.91
2018-07-13T11:47:54.289Z,13.74
2018-07-13T11:51:18.754Z,13.30
2018-07-13T11:54:43.202Z,13.20
2018-07-13T11:58:07.920Z,13.47
2018-07-13T12:01:32.410Z,14.54
2018-07-13T12:04:56.868Z,13.63
2018-07-13T12:08:21.334Z,12.15
2018-07-13T12:11:45.908Z,12.00
2018-07-13T12:15:10.398Z,12.48
2018-07-13T12:18:34.844Z,14.20
2018-07-13T12:21:59.318Z,16.17
2018-07-13T12:25:23.870Z,17.59
2018-07-13T12:28:48.322Z,18.80
2018-07-13T12:32:12.771Z,17.48
2018-07-13T12:35:37.262Z,18.04
2018-07-13T12:39:01.727Z,18.90
2018-07-13T12:42:26.490Z,16.95
2018-07-13T12:45:50.931Z,16.86
2018-07-13T12:49:15.547Z,15.77
2018-07-13T12:52:39.994Z,15.04
2018-07-13T12:56:04.514Z,13.12
2018-07-13T12:59:29.120Z,13.06
2018-07-13T13:02:53.549Z,11.76
2018-07-13T13:06:18.074Z,11.25
2018-07-13T13:09:43.327Z,11.25
2018-07-13T13:13:07.573Z,12.44
2018-07-13T13:16:32.068Z,12.12
2018-07-13T13:19:56.598Z,12.05
2018-07-13T13:23:21.093Z,10.42
2018-07-13T13:26:45.611Z,10.03
2018-07-13T13:30:10.108Z,10.33
2018-07-13T13:33:34.631Z,9.97
2018-07-13T13:36:59.054Z,10.48
2018-07-13T13:40:23.530Z,9.05
2018-07-13T13:43:47.936Z,9.55
2018-07-13T13:47:12.336Z,10.68
2018-07-13T13:50:36.719Z,12.05
2018-07-13T13:54:01.167Z,11.88
2018-07-13T13:57:25.613Z,11.34
2018-07-13T14:00:50.115Z,10.67
2018-07-13T14:04:14.567Z,11.75
2018-07-13T14:07:38.978Z,12.42
2018-07-13T14:11:03.415Z,13.39
2018-07-13T14:14:27.882Z,13.04
2018-07-13T14:17:52.314Z,13.50
2018-07-13T14:21:16.754Z,11.09
2018-07-13T14:24:41.154Z,11.98
2018-07-13T14:28:05.775Z,10.80
2018-07-13T14:31:30.222Z,13.87
2018-07-13T14:34:54.638Z,14.36
2018-07-13T14:38:19.056Z,12.75
2018-07-13T14:41:43.491Z,11.05
2018-07-13T14:45:07.932Z,11.67
2018-07-13T14:48:32.353Z,11.79
2018-07-13T14:51:56.782Z,11.77
2018-07-13T14:55:21.234Z,12.67
2018-07-13T14:58:45.707Z,11.52
2018-07-13T15:02:10.144Z,11.24
2018-07-13T15:05:34.629Z,12.00
2018-07-13T15:08:59.031Z,11.04
2018-07-13T15:12:23.497Z,11.45
2018-07-13T15:15:47.965Z,10.64
2018-07-13T15:19:12.449Z,10.78
2018-07-13T15:22:36.883Z,11.11
2018-07-13T15:26:01.329Z,11.39
2018-07-13T15:29:25.809Z,11.04
2018-07-13T15:32:50.216Z,9.84
2018-07-13T15:36:14.732Z,8.63
2018-07-13T15:39:39.167Z,9.00
2018-07-13T15:43:03.620Z,9.75
2018-07-13T15:46:28.082Z,10.04
2018-07-13T15:49:52.510Z,9.93
2018-07-13T15:53:17.014Z,10.57
2018-07-13T15:56:41.475Z,9.10
2018-07-13T16:00:05.995Z,9.77
2018-07-13T16:03:37.046Z,8.88
2018-07-13T16:07:01.989Z,9.68
2018-07-13T16:10:26.425Z,10.79
2018-07-13T16:13:51.032Z,10.50
2018-07-13T16:17:15.804Z,10.66
2018-07-13T16:20:40.393Z,10.44
2018-07-13T16:24:04.883Z,10.79
2018-07-13T16:27:29.336Z,10.01
2018-07-13T16:30:53.796Z,11.14
2018-07-13T16:34:18.205Z,11.84
2018-07-13T16:37:42.622Z,12.60
2018-07-13T16:41:07.212Z,12.95
2018-07-13T16:44:31.634Z,14.46
2018-07-13T16:47:56.075Z,14.01
2018-07-13T16:51:20.524Z,14.15
2018-07-13T16:54:44.973Z,15.35
2018-07-13T16:58:09.405Z,15.46
2018-07-13T17:01:33.902Z,15.97
2018-07-13T17:04:58.426Z,18.44
2018-07-13T17:08:22.866Z,19.77
2018-07-13T17:11:47.909Z,21.77
2018-07-13T17:15:12.454Z,22.24
2018-07-13T17:18:37.444Z,21.70
2018-07-13T17:22:02.738Z,22.47
2018-07-13T17:25:27.177Z,21.48
2018-07-13T17:28:51.765Z,20.35
2018-07-13T17:32:16.227Z,22.26
2018-07-13T17:35:40.658Z,22.14
2018-07-13T17:39:06.830Z,24.13
2018-07-13T17:42:32.699Z,25.18
2018-07-13T17:45:57.787Z,23.50
2018-07-13T17:49:23.115Z,25.96
2018-07-13T17:52:48.108Z,26.95
2018-07-13T17:56:12.762Z,24.78
2018-07-13T17:59:37.772Z,29.31
2018-07-13T18:03:02.489Z,25.48
2018-07-13T18:06:27.555Z,28.93
2018-07-13T18:09:52.283Z,32.91
2018-07-13T18:13:17.487Z,36.96
2018-07-13T18:16:42.457Z,36.29
2018-07-13T18:20:07.047Z,37.51
2018-07-13T18:23:31.757Z,37.22
2018-07-13T18:26:56.771Z,37.39
2018-07-13T18:30:21.828Z,38.04
2018-07-13T18:33:47.329Z,37.35
2018-07-13T18:37:12.614Z,38.78
2018-07-13T18:40:38.642Z,36.86
2018-07-13T18:44:03.110Z,37.73
2018-07-13T18:47:27.684Z,38.78
2018-07-13T18:50:52.456Z,41.09
2018-07-13T18:54:17.299Z,40.01
2018-07-13T18:57:42.143Z,41.18
2018-07-13T19:01:06.629Z,42.68
2018-07-13T19:04:32.163Z,41.37
2018-07-13T19:07:57.232Z,43.89
2018-07-13T19:15:03.675Z,42.04
2018-07-13T19:18:36.941Z,40.25
2018-07-13T19:22:09.443Z,43.48
2018-07-13T19:25:37.335Z,46.22
2018-07-13T19:29:02.131Z,46.61
2018-07-13T19:32:26.570Z,48.81
2018-07-13T19:35:52.283Z,43.68
2018-07-13T19:39:18.040Z,45.86
2018-07-13T19:42:44.720Z,47.42
2018-07-13T19:46:11.801Z,48.11
2018-07-13T19:49:37.301Z,48.32
2018-07-13T19:53:02.827Z,47.81
2018-07-13T19:56:27.272Z,48.92
2018-07-13T20:00:08.966Z,48.64
2018-07-13T20:03:33.414Z,48.79
2018-07-13T20:06:57.894Z,48.11
2018-07-13T20:10:22.443Z,47.34
2018-07-13T20:13:46.872Z,47.95
2018-07-13T20:17:11.337Z,48.54
2018-07-13T20:20:35.730Z,47.39
2018-07-13T20:24:00.151Z,47.28
2018-07-13T20:27:24.586Z,49.46
2018-07-13T20:30:49.031Z,49.61
2018-07-13T20:34:13.633Z,49.03
2018-07-13T20:37:38.062Z,44.98
2018-07-13T20:41:02.489Z,48.52
2018-07-13T20:44:26.948Z,49.84
2018-07-13T20:47:51.422Z,47.70
2018-07-13T20:51:15.880Z,47.10
2018-07-13T20:54:40.312Z,46.08
2018-07-13T20:58:04.798Z,45.99
2018-07-13T21:01:29.236Z,46.26
2018-07-13T21:04:53.738Z,45.88
2018-07-13T21:08:18.200Z,47.17
2018-07-13T21:11:42.645Z,48.19
2018-07-13T21:15:07.136Z,47.16
2018-07-13T21:18:31.559Z,47.19
2018-07-13T21:21:55.999Z,48.72
2018-07-13T21:25:20.434Z,48.03
2018-07-13T21:28:44.854Z,47.60
2018-07-13T21:32:09.319Z,48.29
2018-07-13T21:35:33.723Z,49.34
2018-07-13T21:38:58.200Z,51.22
2018-07-13T21:42:22.648Z,50.47
2018-07-13T21:45:47.079Z,50.24
2018-07-13T21:49:11.555Z,51.70
2018-07-13T21:52:36.098Z,49.96
2018-07-13T21:56:00.558Z,51.76
2018-07-13T21:59:25.076Z,50.56
2018-07-13T22:02:49.567Z,50.57
2018-07-13T22:06:14.004Z,49.42
2018-07-13T22:09:38.449Z,50.67
2018-07-13T22:13:02.920Z,50.97
2018-07-13T22:16:27.399Z,51.65
2018-07-13T22:19:51.822Z,51.38
2018-07-13T22:23:16.361Z,52.12
2018-07-13T22:26:40.821Z,52.82
2018-07-13T22:30:05.693Z,52.04
2018-07-13T22:33:30.129Z,51.48
2018-07-13T22:36:54.628Z,52.43
2018-07-13T22:40:19.135Z,52.50
2018-07-13T22:43:43.514Z,51.72
2018-07-13T22:47:07.953Z,51.92
2018-07-13T22:50:32.370Z,52.43
2018-07-13T22:53:56.788Z,52.96
2018-07-13T22:57:21.224Z,54.52
2018-07-13T23:00:45.594Z,53.45
2018-07-13T23:04:10.039Z,53.26
2018-07-13T23:07:34.431Z,53.38
2018-07-13T23:10:59.513Z,53.81
2018-07-13T23:14:23.922Z,54.42
2018-07-13T23:17:48.334Z,54.05
2018-07-13T23:21:12.773Z,54.24
2018-07-13T23:24:37.212Z,54.58
2018-07-13T23:28:01.636Z,55.76
2018-07-13T23:31:26.067Z,55.43
2018-07-13T23:34:50.558Z,55.42
2018-07-13T23:38:15.059Z,56.13
2018-07-13T23:41:39.494Z,56.31
2018-07-13T23:45:03.951Z,55.50
2018-07-13T23:48:28.361Z,56.20
2018-07-13T23:51:52.783Z,55.88
2018-07-13T23:55:17.215Z,56.89
2018-07-13T23:58:41.732Z,56.68
